2006 0920052006 (2006049S16051)


On this page: IBTrACS data - Map and Plots - Positions - Intensities - Original source data

Summary

Start Feb 18
End Feb 23
Basin SI
LMI 50 kt
Sources jtwc_sh
reunion
neumann
In WMO? Yes
Previous storm 2006 VAIANU (SP)
Previous in basin 2006 BOLOETSE (SI)
Concurrent storms 2006 VAIANU (SP)
2006 0920052006 (SI)
2006 KATE (SP)
2006 CARINA (SI)
Next in basin 2006 CARINA (SI)
Next storm 2006 KATE (SP)

top of page IBTrACS Data: File Access

top of page HURSAT Data: File Access

Image of storm

top of page Plots:

Map of storm track will not appear if FTP is down
Time series of cyclone Maximum Sustained Wind will not appear if FTP is down
Time series of cyclone Minimum Central Pressure will not appear if FTP is down

top of page Track Data:Position

jtwc_sh reunion neumann
Date Lat Lon Lat Lon Lat Lon
2006-02-18 00:00:00 -16.4 51.2 -15.8 51.7 -16.4 51.2
2006-02-18 06:00:00 -16.3 51.9 -16.1 52.1 -16.3 51.9
2006-02-18 12:00:00 -16.4 52.7 -16.4 52.4 -16.4 52.7
2006-02-18 18:00:00 -16.7 53.5 -17.0 53.6 -16.7 53.5
2006-02-19 00:00:00 -17.1 54.5 -17.4 54.6 -17.1 54.5
2006-02-19 06:00:00 -17.9 55.3 -17.9 55.3 -17.9 55.3
2006-02-19 12:00:00 -18.4 56.1 -18.5 56.2 -18.4 56.1
2006-02-19 18:00:00 -18.9 56.8 -19.0 56.9 -18.9 56.8
2006-02-20 00:00:00 -19.3 57.4 -19.1 57.4 -19.3 57.4
2006-02-20 06:00:00 -19.4 57.8 -19.3 57.9 -19.4 57.8
2006-02-20 12:00:00 -19.4 58.2 -19.3 58.2 -19.4 58.2
2006-02-20 18:00:00 -19.1 57.9 -19.0 58.0 -19.1 57.9
2006-02-21 00:00:00 -18.8 57.6 -18.8 57.7 -18.8 57.6
2006-02-21 06:00:00 -18.7 57.2 -18.6 57.2 -18.7 57.2
2006-02-21 12:00:00 -18.6 56.7 -18.6 56.7 -18.6 56.7
2006-02-21 18:00:00 -18.4 55.9 -18.3 55.7 -18.4 55.9
2006-02-22 00:00:00 -18.0 54.9 -18.0 54.8 -18.0 54.9
2006-02-22 06:00:00 -17.6 53.7 -17.6 53.8 -17.6 53.7
2006-02-22 12:00:00 -16.9 52.7 -17.0 52.9 -16.9 52.7
2006-02-22 18:00:00 -16.1 51.9 -16.3 52.1 -16.1 51.9
2006-02-23 00:00:00 -15.9 51.2 -15.5 51.2 -15.9 51.2
2006-02-23 06:00:00 -16.0 50.8 -16.0 50.8
2006-02-23 12:00:00 -16.3 50.7 -16.3 50.7
2006-02-23 18:00:00 -16.6 50.6 -16.6 50.6

top of pageTrack Data:Intensity

jtwc_sh reunion neumann
Date Wind Pres Wind Pres Wind Pres
2006-02-18 00:00:00 15. 1006. 20. 1007. 15.
2006-02-18 06:00:00 20. 1004. 20. 1006. 20.
2006-02-18 12:00:00 20. 1004. 20. 1005. 20.
2006-02-18 18:00:00 25. 1004. 25. 1004. 25.
2006-02-19 00:00:00 30. 1000. 30. 1001. 30.
2006-02-19 06:00:00 35. 996. 40. 998. 35.
2006-02-19 12:00:00 35. 997. 45. 995. 35.
2006-02-19 18:00:00 45. 991. 50. 992. 45.
2006-02-20 00:00:00 45. 991. 50. 992. 45.
2006-02-20 06:00:00 40. 994. 45. 995. 40.
2006-02-20 12:00:00 35. 997. 33. 1000. 35.
2006-02-20 18:00:00 25. 1002. 30. 1002. 25.
2006-02-21 00:00:00 25. 1002. 28. 1003. 25.
2006-02-21 06:00:00 25. 1002. 28. 1003. 25.
2006-02-21 12:00:00 25. 1002. 28. 1003. 25.
2006-02-21 18:00:00 25. 1002. 25. 1004. 25.
2006-02-22 00:00:00 25. 1002. 25. 1004. 25.
2006-02-22 06:00:00 25. 1002. 20. 1005. 25.
2006-02-22 12:00:00 25. 1002. 20. 1005. 25.
2006-02-22 18:00:00 25. 1002. 20. 1006. 25.
2006-02-23 00:00:00 25. 1002. 20. 1006. 25.
2006-02-23 06:00:00 25. 1002. 25.
2006-02-23 12:00:00 25. 1002. 25.
2006-02-23 18:00:00 25. 1002. 25.

top of page Links to source data

Source Source file Format
jtwc_sh bsh122006.txt ATCF
reunion Best-Tracks-current.txt:Line=1116:0920052006 WMO (old format)
neumann tracks.sh:Storm=1340:Not named:BSH122005:JTWC HURDAT